createdAt,value
2018-11-23T00:00:37.019Z,13.07
2018-11-23T00:01:36.982Z,12.22
2018-11-23T00:02:36.936Z,11.74
2018-11-23T00:03:36.889Z,12.88
2018-11-23T00:04:36.847Z,13.35
2018-11-23T00:05:36.800Z,12.50
2018-11-23T00:06:36.757Z,10.89
2018-11-23T00:07:36.714Z,10.89
2018-11-23T00:08:36.677Z,10.22
2018-11-23T00:09:36.636Z,10.13
2018-11-23T00:10:36.590Z,9.28
2018-11-23T00:11:36.545Z,8.52
2018-11-23T00:12:36.501Z,8.33
2018-11-23T00:13:36.455Z,8.14
2018-11-23T00:14:36.418Z,7.29
2018-11-23T00:15:36.371Z,7.20
2018-11-23T00:16:36.331Z,6.63
2018-11-23T00:17:36.307Z,6.25
2018-11-23T00:18:36.239Z,6.06
2018-11-23T00:19:36.222Z,6.06
2018-11-23T00:20:36.156Z,6.06
2018-11-23T00:21:44.781Z,5.68
2018-11-23T00:23:40.515Z,5.96
2018-11-23T00:24:40.445Z,4.35
2018-11-23T00:25:40.403Z,1.61
2018-11-23T00:26:40.356Z,0.00
2018-11-23T00:27:40.316Z,0.00
2018-11-23T00:28:40.272Z,0.00
2018-11-23T00:29:40.230Z,0.00
2018-11-23T00:30:40.181Z,0.00
2018-11-23T00:31:40.142Z,0.00
2018-11-23T00:32:40.096Z,0.00
2018-11-23T00:33:40.053Z,0.00
2018-11-23T00:34:40.015Z,0.00
2018-11-23T00:35:39.969Z,0.00
2018-11-23T00:36:39.927Z,0.00
2018-11-23T00:37:39.883Z,0.00
2018-11-23T00:38:39.837Z,0.00
2018-11-23T00:39:39.807Z,0.00
2018-11-23T00:40:39.750Z,0.00
2018-11-23T00:41:39.707Z,0.00
2018-11-23T00:42:39.673Z,0.00
2018-11-23T00:43:39.624Z,0.00
2018-11-23T00:44:39.576Z,0.00
2018-11-23T00:45:43.027Z,0.00
2018-11-23T00:46:39.494Z,0.00
2018-11-23T00:47:39.452Z,0.00
2018-11-23T00:48:39.411Z,0.00
2018-11-23T00:49:39.362Z,0.00
2018-11-23T00:50:39.317Z,0.00
2018-11-23T00:51:39.273Z,0.00
2018-11-23T00:52:39.235Z,0.00
2018-11-23T00:53:39.189Z,0.00
2018-11-23T00:54:39.148Z,0.00
2018-11-23T00:55:39.105Z,0.00
2018-11-23T00:56:39.063Z,0.00
2018-11-23T00:57:39.017Z,0.00
2018-11-23T00:58:38.972Z,0.00
2018-11-23T00:59:38.929Z,0.00
2018-11-23T01:00:38.890Z,0.00
2018-11-23T01:01:38.844Z,0.00
2018-11-23T01:02:38.799Z,0.00
2018-11-23T01:03:38.754Z,0.00
2018-11-23T01:04:38.710Z,0.00
2018-11-23T01:05:38.675Z,0.00
2018-11-23T01:06:38.643Z,0.00
2018-11-23T01:07:38.585Z,0.00
2018-11-23T01:08:38.545Z,0.00
2018-11-23T01:09:38.498Z,0.00
2018-11-23T01:10:38.459Z,0.00
2018-11-23T01:11:38.409Z,0.00
2018-11-23T01:12:38.366Z,0.00
2018-11-23T01:13:38.324Z,0.00
2018-11-23T01:14:38.283Z,0.00
2018-11-23T01:15:38.242Z,0.00
2018-11-23T01:16:38.193Z,0.28
2018-11-23T01:17:38.151Z,0.47
2018-11-23T01:18:38.111Z,0.85
2018-11-23T01:19:38.076Z,0.66
2018-11-23T01:20:38.028Z,0.09
2018-11-23T01:21:37.981Z,0.38
2018-11-23T01:22:37.939Z,0.28
2018-11-23T01:23:37.891Z,0.76
2018-11-23T01:24:37.846Z,0.76
2018-11-23T01:25:37.805Z,0.66
2018-11-23T01:26:37.766Z,0.85
2018-11-23T01:27:37.726Z,0.38
2018-11-23T01:28:37.680Z,0.19
2018-11-23T01:29:37.639Z,0.38
2018-11-23T01:30:37.591Z,0.66
2018-11-23T01:31:37.547Z,0.85
2018-11-23T01:32:37.506Z,1.14
2018-11-23T01:33:37.464Z,1.23
2018-11-23T01:34:37.417Z,1.32
2018-11-23T01:35:37.374Z,1.61
2018-11-23T01:36:37.331Z,2.08
2018-11-23T01:37:37.288Z,2.37
2018-11-23T01:38:37.247Z,3.22
2018-11-23T01:39:37.204Z,3.69
2018-11-23T01:40:37.161Z,4.36
2018-11-23T01:41:37.116Z,4.93
2018-11-23T01:42:37.073Z,5.02
2018-11-23T01:43:37.028Z,6.06
2018-11-23T01:44:36.987Z,7.01
2018-11-23T01:45:36.941Z,7.39
2018-11-23T01:46:36.904Z,7.95
2018-11-23T01:47:36.863Z,8.62
2018-11-23T01:48:36.811Z,8.81
2018-11-23T01:49:36.768Z,8.91
2018-11-23T01:50:36.727Z,9.28
2018-11-23T01:51:36.705Z,9.28
2018-11-23T01:52:36.642Z,8.72
2018-11-23T01:53:36.616Z,8.62
2018-11-23T01:54:36.555Z,8.24
2018-11-23T01:55:36.513Z,7.39
2018-11-23T01:56:36.470Z,7.01
2018-11-23T01:57:36.427Z,6.73
2018-11-23T01:58:36.382Z,5.96
2018-11-23T01:59:36.341Z,5.49
2018-11-23T02:00:36.297Z,5.02
2018-11-23T02:01:36.275Z,5.11
2018-11-23T02:02:36.206Z,4.64
2018-11-23T02:03:36.163Z,3.03
2018-11-23T02:04:36.124Z,1.89
2018-11-23T02:05:36.081Z,1.51
2018-11-23T02:06:36.033Z,1.70
2018-11-23T02:07:35.989Z,1.89
2018-11-23T02:08:35.944Z,2.65
2018-11-23T02:09:35.904Z,3.13
2018-11-23T02:10:35.864Z,3.50
2018-11-23T02:11:35.823Z,3.59
2018-11-23T02:12:35.777Z,4.07
2018-11-23T02:13:35.734Z,3.50
2018-11-23T02:14:35.690Z,3.03
2018-11-23T02:15:35.643Z,2.46
2018-11-23T02:16:35.600Z,2.08
2018-11-23T02:17:35.557Z,1.79
2018-11-23T02:18:35.517Z,1.89
2018-11-23T02:19:35.476Z,2.46
2018-11-23T02:20:35.426Z,3.03
2018-11-23T02:21:35.386Z,3.03
2018-11-23T02:22:35.346Z,3.50
2018-11-23T02:23:35.312Z,3.69
2018-11-23T02:24:35.259Z,3.03
2018-11-23T02:25:35.220Z,2.27
2018-11-23T02:26:35.171Z,2.08
2018-11-23T02:27:35.128Z,0.76
2018-11-23T02:28:35.080Z,0.00
2018-11-23T02:29:35.045Z,0.00
2018-11-23T02:30:35.005Z,0.00
2018-11-23T02:31:34.967Z,0.00
2018-11-23T02:32:34.923Z,0.00
2018-11-23T02:33:34.881Z,0.00
2018-11-23T02:34:34.837Z,0.00
2018-11-23T02:35:34.783Z,0.00
2018-11-23T02:36:34.749Z,0.00
2018-11-23T02:37:34.726Z,0.00
2018-11-23T02:38:34.671Z,0.00
2018-11-23T02:39:34.617Z,0.00
2018-11-23T02:40:34.565Z,0.00
2018-11-23T02:41:34.529Z,0.00
2018-11-23T02:42:34.496Z,0.00
2018-11-23T02:43:34.461Z,0.00
2018-11-23T02:44:34.399Z,0.00
2018-11-23T02:45:34.353Z,0.00
2018-11-23T02:46:34.317Z,0.00
2018-11-23T02:47:34.278Z,0.00
2018-11-23T02:48:34.221Z,0.00
2018-11-23T02:49:34.176Z,0.00
2018-11-23T02:50:34.139Z,0.00
2018-11-23T02:51:34.100Z,0.00
2018-11-23T02:52:34.049Z,0.00
2018-11-23T02:53:34.008Z,0.00
2018-11-23T02:54:33.969Z,0.00
2018-11-23T02:55:33.922Z,0.00
2018-11-23T02:56:33.882Z,0.00
2018-11-23T02:57:33.836Z,0.00
2018-11-23T02:58:33.787Z,0.00
2018-11-23T02:59:33.750Z,0.00
2018-11-23T03:00:33.699Z,0.00
2018-11-23T03:01:33.663Z,0.00
2018-11-23T03:02:33.619Z,0.00
2018-11-23T03:03:33.581Z,0.00
2018-11-23T03:04:33.534Z,0.00
2018-11-23T03:05:33.489Z,0.00
2018-11-23T03:06:33.444Z,0.00
2018-11-23T03:07:33.406Z,0.00
2018-11-23T03:08:33.364Z,0.00
2018-11-23T03:09:33.323Z,0.00
2018-11-23T03:10:33.274Z,0.00
2018-11-23T03:11:33.232Z,0.00
2018-11-23T03:12:33.189Z,0.00
2018-11-23T03:13:33.141Z,0.00
2018-11-23T03:14:33.121Z,0.00
2018-11-23T03:15:33.068Z,0.00
2018-11-23T03:16:33.025Z,0.00
2018-11-23T03:17:32.978Z,0.00
2018-11-23T03:18:32.927Z,0.00
2018-11-23T03:19:32.881Z,0.00
2018-11-23T03:20:32.836Z,0.00
2018-11-23T03:21:32.811Z,0.00
2018-11-23T03:22:32.754Z,0.28
2018-11-23T03:23:32.727Z,0.95
2018-11-23T03:24:32.664Z,0.95
2018-11-23T03:25:32.649Z,0.66
2018-11-23T03:26:32.596Z,0.66
2018-11-23T03:27:32.565Z,0.76
2018-11-23T03:28:32.502Z,0.66
2018-11-23T03:29:32.476Z,0.66
2018-11-23T03:30:32.409Z,0.47
2018-11-23T03:31:32.372Z,0.76
2018-11-23T03:32:32.321Z,0.66
2018-11-23T03:33:32.309Z,0.19
2018-11-23T03:34:32.239Z,0.00
2018-11-23T03:35:32.201Z,0.00
2018-11-23T03:36:32.156Z,0.00
2018-11-23T03:37:32.116Z,0.00
2018-11-23T03:38:32.067Z,0.00
2018-11-23T03:39:34.136Z,0.00
2018-11-23T03:40:31.985Z,0.00
2018-11-23T03:41:31.936Z,0.00
2018-11-23T03:42:31.893Z,0.00
2018-11-23T03:43:31.854Z,0.00
2018-11-23T03:44:31.812Z,0.00
2018-11-23T03:45:31.767Z,0.00
2018-11-23T03:46:31.725Z,0.00
2018-11-23T03:47:31.680Z,0.00
2018-11-23T03:48:31.640Z,0.00
2018-11-23T03:49:31.594Z,0.00
2018-11-23T03:50:31.554Z,0.00
2018-11-23T03:51:31.514Z,0.00
2018-11-23T04:06:37.336Z,0.00
2018-11-23T04:07:37.246Z,0.00
2018-11-23T04:08:37.183Z,0.00
2018-11-23T04:09:37.131Z,0.00
2018-11-23T04:10:37.076Z,0.00
2018-11-23T04:11:37.123Z,0.00
2018-11-23T04:12:36.989Z,0.00
2018-11-23T04:13:36.946Z,0.00
2018-11-23T04:14:36.903Z,0.00
2018-11-23T04:15:36.860Z,0.00
2018-11-23T04:16:36.822Z,0.00
2018-11-23T04:17:36.770Z,0.00
2018-11-23T04:18:36.726Z,0.00
2018-11-23T04:19:36.685Z,0.00
2018-11-23T04:20:36.633Z,0.00
2018-11-23T04:21:36.592Z,0.00
2018-11-23T04:22:36.552Z,0.00
2018-11-23T04:23:36.525Z,0.00
2018-11-23T04:24:36.457Z,0.00
2018-11-23T04:25:36.430Z,0.00
2018-11-23T04:26:36.385Z,0.00
2018-11-23T04:27:36.332Z,0.00
2018-11-23T04:28:36.284Z,0.00
2018-11-23T04:29:36.241Z,0.00
2018-11-23T04:30:36.202Z,0.00
2018-11-23T04:31:36.151Z,0.00
2018-11-23T04:32:36.109Z,0.00
2018-11-23T04:33:36.079Z,0.00
2018-11-23T04:34:36.027Z,0.00
2018-11-23T04:35:35.975Z,0.00
2018-11-23T04:36:35.935Z,0.00
2018-11-23T04:37:35.906Z,0.00
2018-11-23T04:38:35.883Z,0.00
2018-11-23T04:39:35.830Z,0.00
2018-11-23T04:40:35.764Z,0.00
2018-11-23T04:41:35.726Z,0.00
2018-11-23T04:42:35.687Z,0.00
2018-11-23T04:43:35.653Z,0.00
2018-11-23T04:44:35.598Z,0.00
2018-11-23T04:45:35.552Z,0.00
2018-11-23T04:46:35.514Z,0.00
2018-11-23T04:47:35.484Z,0.00
2018-11-23T04:48:35.440Z,0.00
2018-11-23T04:49:35.403Z,0.00
2018-11-23T04:50:35.354Z,0.00
2018-11-23T04:51:35.293Z,0.00
2018-11-23T04:52:35.251Z,0.00
2018-11-23T04:53:35.200Z,0.00
2018-11-23T04:54:35.159Z,0.00
2018-11-23T04:55:35.119Z,0.00
2018-11-23T04:56:35.070Z,0.00
2018-11-23T04:57:35.027Z,0.00
2018-11-23T04:58:34.997Z,0.00
2018-11-23T04:59:34.961Z,0.00
2018-11-23T05:00:34.903Z,0.00
2018-11-23T05:01:34.853Z,0.00
2018-11-23T05:02:34.808Z,0.00
2018-11-23T05:03:34.772Z,0.00
2018-11-23T05:04:34.743Z,0.00
2018-11-23T05:05:34.686Z,0.00
2018-11-23T05:06:34.646Z,0.00
2018-11-23T05:07:34.595Z,0.00
2018-11-23T05:08:34.556Z,0.00
2018-11-23T05:09:34.521Z,0.00
2018-11-23T05:10:34.473Z,0.00
2018-11-23T05:11:34.428Z,0.00
2018-11-23T05:12:34.392Z,0.00
2018-11-23T05:13:34.349Z,0.00
2018-11-23T05:14:34.298Z,0.00
2018-11-23T05:15:34.286Z,0.00
2018-11-23T05:16:34.226Z,0.00
2018-11-23T05:17:34.172Z,0.00
2018-11-23T05:18:34.148Z,0.00
2018-11-23T05:19:34.090Z,0.00
2018-11-23T05:20:34.046Z,0.00
2018-11-23T05:21:34.009Z,0.00
2018-11-23T05:22:33.964Z,0.00
2018-11-23T05:23:33.916Z,0.00
2018-11-23T05:24:33.870Z,0.00
2018-11-23T05:25:33.825Z,0.00
2018-11-23T05:26:33.781Z,0.00
2018-11-23T05:27:33.738Z,0.00
2018-11-23T05:28:33.693Z,0.00
2018-11-23T05:29:33.656Z,0.00
2018-11-23T05:30:33.616Z,0.00
2018-11-23T05:31:33.568Z,0.00
2018-11-23T05:32:33.532Z,0.00
2018-11-23T05:33:33.479Z,0.00
2018-11-23T05:34:33.439Z,0.00
2018-11-23T05:35:33.393Z,0.00
2018-11-23T05:36:33.350Z,0.00
2018-11-23T05:37:33.304Z,0.00
2018-11-23T05:38:33.279Z,0.00
2018-11-23T05:39:33.225Z,0.00
2018-11-23T05:40:33.203Z,0.00
2018-11-23T05:41:33.136Z,0.00
2018-11-23T05:42:33.099Z,0.00
2018-11-23T05:43:33.105Z,0.00
2018-11-23T05:44:33.430Z,0.00
2018-11-23T05:45:32.962Z,0.00
2018-11-23T05:46:32.917Z,0.00
2018-11-23T05:47:32.881Z,0.00
2018-11-23T05:48:32.838Z,0.00
2018-11-23T05:49:32.805Z,0.00
2018-11-23T05:50:32.752Z,0.00
2018-11-23T05:51:32.718Z,0.00
2018-11-23T05:52:32.681Z,0.00
2018-11-23T05:53:32.644Z,0.00
2018-11-23T05:54:32.582Z,0.00
2018-11-23T05:55:32.534Z,0.00
2018-11-23T05:56:32.495Z,0.00
2018-11-23T05:57:32.520Z,0.00
2018-11-23T05:58:32.400Z,0.00
2018-11-23T05:59:32.365Z,0.00
2018-11-23T06:00:32.313Z,0.00
2018-11-23T06:01:32.275Z,0.00
2018-11-23T06:02:32.266Z,0.00
2018-11-23T06:03:32.191Z,0.00
2018-11-23T06:04:32.152Z,0.00
2018-11-23T06:05:32.103Z,0.00
2018-11-23T06:06:32.062Z,0.00
2018-11-23T06:07:32.014Z,0.00
2018-11-23T06:08:31.972Z,0.00
2018-11-23T06:09:31.930Z,0.00
2018-11-23T06:10:31.898Z,0.00
2018-11-23T06:11:31.840Z,0.00
2018-11-23T06:12:31.803Z,0.00
2018-11-23T06:13:31.762Z,0.00
2018-11-23T06:14:31.719Z,0.00
2018-11-23T06:15:31.675Z,0.00
2018-11-23T06:16:31.636Z,0.00
2018-11-23T06:17:31.588Z,0.00
2018-11-23T06:18:31.556Z,0.00
2018-11-23T06:19:31.500Z,0.00
2018-11-23T06:20:31.458Z,0.00
2018-11-23T06:21:31.414Z,0.00
2018-11-23T06:22:31.377Z,0.00
2018-11-23T06:23:31.330Z,0.00
2018-11-23T06:24:32.122Z,0.00
2018-11-23T06:25:31.243Z,0.00
2018-11-23T06:26:31.197Z,0.00
2018-11-23T06:27:31.161Z,0.00
2018-11-23T06:28:31.114Z,0.00
2018-11-23T06:29:31.068Z,0.00
2018-11-23T06:30:31.024Z,0.00
2018-11-23T06:31:30.982Z,0.00
2018-11-23T06:32:30.946Z,0.00
2018-11-23T06:33:30.939Z,0.00
2018-11-23T06:34:30.859Z,0.00
2018-11-23T06:35:30.816Z,0.00
2018-11-23T06:36:30.777Z,0.85
2018-11-23T06:37:30.732Z,1.23
2018-11-23T06:38:30.687Z,1.14
2018-11-23T06:39:30.641Z,1.04
2018-11-23T06:40:30.601Z,1.04
2018-11-23T06:41:30.557Z,0.95
2018-11-23T06:42:30.517Z,0.76
2018-11-23T06:43:30.468Z,0.00
2018-11-23T06:44:30.429Z,0.00
2018-11-23T06:45:30.384Z,0.00
2018-11-23T06:46:30.347Z,0.00
2018-11-23T06:47:30.305Z,0.00
2018-11-23T06:48:30.257Z,0.00
2018-11-23T06:49:30.211Z,0.00
2018-11-23T06:50:30.166Z,0.00
2018-11-23T06:51:30.167Z,0.00
2018-11-23T06:52:30.092Z,0.00
2018-11-23T06:53:30.038Z,0.00
2018-11-23T06:54:29.998Z,0.00
2018-11-23T06:55:29.955Z,0.00
2018-11-23T06:56:29.921Z,0.00
2018-11-23T06:57:29.875Z,0.00
2018-11-23T06:58:29.828Z,0.00
2018-11-23T06:59:29.784Z,0.00
2018-11-23T07:00:29.737Z,0.00
2018-11-23T07:01:29.699Z,0.00
2018-11-23T07:02:29.657Z,0.00
2018-11-23T07:03:29.610Z,0.00
2018-11-23T07:04:29.580Z,0.00
2018-11-23T07:05:29.521Z,0.00
2018-11-23T07:06:29.485Z,0.00
2018-11-23T07:07:29.439Z,0.00
2018-11-23T07:08:29.393Z,0.00
2018-11-23T07:09:29.356Z,0.00
2018-11-23T07:10:29.313Z,0.00
2018-11-23T07:11:29.288Z,0.00
2018-11-23T07:12:29.242Z,0.00
2018-11-23T07:13:29.177Z,0.00
2018-11-23T07:14:29.142Z,0.00
2018-11-23T07:15:29.097Z,0.00
2018-11-23T07:16:29.055Z,0.00
2018-11-23T07:17:29.009Z,0.00
2018-11-23T07:18:28.965Z,0.00
2018-11-23T07:19:28.923Z,0.00
2018-11-23T07:20:28.888Z,0.00
2018-11-23T07:21:28.839Z,0.00
2018-11-23T07:22:28.801Z,0.00
2018-11-23T07:23:28.754Z,0.00
2018-11-23T07:24:28.713Z,0.00
2018-11-23T07:25:28.663Z,0.00
2018-11-23T07:26:28.623Z,0.00
2018-11-23T07:27:28.582Z,0.00
2018-11-23T07:28:28.532Z,0.00
2018-11-23T07:29:28.497Z,0.00
2018-11-23T07:30:28.454Z,0.00
2018-11-23T07:31:28.407Z,0.00
2018-11-23T07:32:28.363Z,0.00
2018-11-23T07:33:28.324Z,0.00
2018-11-23T07:34:28.282Z,0.00
2018-11-23T07:35:28.236Z,0.00
2018-11-23T07:36:28.201Z,0.00
2018-11-23T07:37:28.150Z,0.00
2018-11-23T07:38:28.106Z,0.00
2018-11-23T07:39:28.063Z,0.00
2018-11-23T07:40:28.026Z,0.00
2018-11-23T07:41:27.980Z,0.00
2018-11-23T07:42:27.938Z,0.00
2018-11-23T07:43:27.894Z,0.00
2018-11-23T07:44:27.855Z,0.00
2018-11-23T07:45:27.803Z,0.00
2018-11-23T07:46:27.763Z,0.00
2018-11-23T07:47:27.724Z,0.00
2018-11-23T07:48:27.690Z,0.00
2018-11-23T07:49:27.636Z,0.00
2018-11-23T07:50:27.600Z,0.00
2018-11-23T07:51:27.552Z,0.00
2018-11-23T07:52:27.509Z,0.00
2018-11-23T07:53:27.469Z,0.00
2018-11-23T07:54:27.427Z,0.00
2018-11-23T07:55:27.386Z,0.00
2018-11-23T07:56:27.340Z,0.00
2018-11-23T07:57:27.293Z,0.00
2018-11-23T07:58:27.253Z,0.00
2018-11-23T07:59:27.208Z,0.00
2018-11-23T08:00:27.167Z,0.00
2018-11-23T08:01:27.127Z,0.00
2018-11-23T08:02:27.082Z,0.00
2018-11-23T08:03:27.045Z,0.00
2018-11-23T08:04:27.000Z,0.00
2018-11-23T08:05:26.956Z,0.00
2018-11-23T08:06:26.912Z,0.00
2018-11-23T08:07:26.871Z,0.00
2018-11-23T08:08:26.830Z,0.00
2018-11-23T08:09:26.780Z,0.00
2018-11-23T08:10:26.739Z,0.00
2018-11-23T08:11:26.703Z,0.00
2018-11-23T08:12:26.654Z,0.00
2018-11-23T08:13:26.617Z,0.00
2018-11-23T08:14:26.574Z,0.00
2018-11-23T08:15:26.531Z,0.00
2018-11-23T08:16:26.499Z,0.00
2018-11-23T08:17:26.442Z,0.00
2018-11-23T08:18:26.402Z,0.00
2018-11-23T08:19:26.363Z,0.00
2018-11-23T08:20:26.322Z,0.00
2018-11-23T08:21:26.273Z,0.00
2018-11-23T08:22:26.233Z,0.00
2018-11-23T08:23:26.192Z,0.00
2018-11-23T08:24:27.142Z,0.00
2018-11-23T08:25:26.108Z,0.00
2018-11-23T08:26:26.064Z,0.00
2018-11-23T08:27:26.027Z,0.00
2018-11-23T08:28:25.983Z,0.57
2018-11-23T08:29:25.935Z,0.47
2018-11-23T08:30:25.893Z,0.95
2018-11-23T08:31:25.850Z,0.28
2018-11-23T08:32:25.810Z,0.00
2018-11-23T08:33:25.799Z,0.00
2018-11-23T08:34:25.739Z,0.00
2018-11-23T08:35:25.685Z,0.00
2018-11-23T08:36:25.641Z,0.00
2018-11-23T08:37:25.599Z,0.00
2018-11-23T08:38:25.558Z,1.89
2018-11-23T08:39:25.516Z,3.41
2018-11-23T08:40:25.474Z,5.41
2018-11-23T08:41:25.426Z,5.60
2018-11-23T08:42:25.388Z,6.92
2018-11-23T08:43:25.351Z,6.73
2018-11-23T08:44:25.301Z,8.35
2018-11-23T08:45:25.265Z,8.73
2018-11-23T08:46:25.231Z,8.82
2018-11-23T08:47:25.181Z,8.44
2018-11-23T08:48:25.140Z,9.20
2018-11-23T08:49:25.089Z,8.92
2018-11-23T08:50:25.058Z,8.73
2018-11-23T08:51:25.015Z,9.20
2018-11-23T08:52:24.972Z,9.01
2018-11-23T08:53:27.979Z,9.11
2018-11-23T08:54:24.883Z,9.30
2018-11-23T08:55:24.843Z,8.35
2018-11-23T08:56:24.796Z,6.92
2018-11-23T08:57:24.764Z,6.83
2018-11-23T08:58:24.719Z,7.12
2018-11-23T08:59:24.673Z,7.59
2018-11-23T09:00:24.641Z,8.06
2018-11-23T09:01:24.588Z,8.73
2018-11-23T09:02:24.549Z,9.39
2018-11-23T09:03:24.504Z,9.01
2018-11-23T09:04:33.124Z,9.01
2018-11-23T09:06:28.868Z,8.06
2018-11-23T09:07:28.793Z,8.92
2018-11-23T09:08:28.751Z,7.59
2018-11-23T09:09:28.710Z,7.31
2018-11-23T09:10:28.667Z,6.64
2018-11-23T09:11:28.629Z,5.41
2018-11-23T09:12:28.584Z,2.75
2018-11-23T09:13:28.542Z,2.84
2018-11-23T09:14:28.497Z,2.84
2018-11-23T09:15:28.538Z,3.51
2018-11-23T09:16:28.417Z,4.55
2018-11-23T09:17:28.376Z,4.17
2018-11-23T09:18:28.337Z,4.74
2018-11-23T09:19:28.290Z,3.51
2018-11-23T09:20:28.252Z,4.75
2018-11-23T09:21:28.208Z,7.50
2018-11-23T09:22:28.166Z,8.54
2018-11-23T09:23:28.129Z,10.06
2018-11-23T09:24:28.085Z,11.96
2018-11-23T09:25:28.043Z,14.91
2018-11-23T09:26:28.007Z,15.48
2018-11-23T09:27:27.957Z,16.33
2018-11-23T09:28:27.916Z,15.86
2018-11-23T09:29:27.877Z,16.81
2018-11-23T09:30:27.839Z,17.38
2018-11-23T09:31:27.822Z,18.43
2018-11-23T09:32:27.750Z,18.43
2018-11-23T09:33:27.709Z,18.71
2018-11-23T09:34:27.666Z,19.76
2018-11-23T09:35:27.631Z,22.33
2018-11-23T09:36:27.587Z,25.27
2018-11-23T09:37:27.546Z,30.98
2018-11-23T09:38:27.509Z,33.26
2018-11-23T09:39:27.459Z,34.69
2018-11-23T09:40:27.419Z,34.97
2018-11-23T09:41:27.378Z,35.14
2018-11-23T09:42:27.335Z,35.81
2018-11-23T09:43:27.307Z,35.90
2018-11-23T09:44:27.256Z,36.00
2018-11-23T09:45:27.213Z,35.35
2018-11-23T09:46:27.173Z,34.67
2018-11-23T09:47:27.136Z,35.16
2018-11-23T09:48:27.092Z,35.92
2018-11-23T09:49:27.054Z,35.25
2018-11-23T09:50:27.015Z,36.11
2018-11-23T09:51:26.966Z,35.54
2018-11-23T09:52:26.926Z,35.16
2018-11-23T09:53:26.883Z,35.35
2018-11-23T09:54:26.844Z,35.83
2018-11-23T09:55:26.807Z,32.59
2018-11-23T09:56:26.762Z,32.78
2018-11-23T09:57:26.723Z,32.97
2018-11-23T09:58:26.684Z,31.93
2018-11-23T09:59:26.636Z,33.17
2018-11-23T10:00:26.597Z,33.17
2018-11-23T10:01:26.558Z,32.97
2018-11-23T10:02:26.519Z,32.21
2018-11-23T10:03:26.474Z,32.21
2018-11-23T10:04:26.449Z,32.40
2018-11-23T10:05:26.393Z,31.55
2018-11-23T10:19:48.338Z,24.62
2018-11-23T10:20:48.266Z,26.81
2018-11-23T10:21:48.224Z,26.72
2018-11-23T10:22:48.172Z,17.11
2018-11-23T10:23:48.135Z,18.54
2018-11-23T10:24:48.088Z,21.67
2018-11-23T10:25:48.042Z,24.43
2018-11-23T10:26:48.008Z,25.57
2018-11-23T10:27:47.959Z,26.34
2018-11-23T10:28:47.917Z,27.00
2018-11-23T10:29:47.879Z,29.47
2018-11-23T10:30:47.828Z,30.15
2018-11-23T10:31:47.816Z,29.49
2018-11-23T10:32:47.749Z,30.82
2018-11-23T10:33:47.710Z,32.34
2018-11-23T10:34:47.660Z,30.91
2018-11-23T10:35:47.624Z,30.06
2018-11-23T10:36:47.585Z,32.43
2018-11-23T10:37:47.539Z,36.24
2018-11-23T10:38:47.502Z,37.12
2018-11-23T10:39:47.460Z,36.07
2018-11-23T10:40:47.419Z,38.83
2018-11-23T10:41:47.381Z,39.69
2018-11-23T10:42:47.335Z,41.78
2018-11-23T10:43:47.297Z,38.54
2018-11-23T10:44:47.255Z,38.26
2018-11-23T10:45:47.211Z,38.35
2018-11-23T10:46:47.176Z,36.35
2018-11-23T10:47:47.136Z,38.26
2018-11-23T10:48:47.093Z,39.31
2018-11-23T10:49:47.048Z,39.21
2018-11-23T10:50:47.016Z,38.64
2018-11-23T10:51:46.971Z,41.21
2018-11-23T10:52:46.931Z,41.61
2018-11-23T10:53:46.907Z,41.59
2018-11-23T10:54:46.849Z,40.54
2018-11-23T10:55:46.809Z,39.59
2018-11-23T10:56:46.794Z,40.16
2018-11-23T10:57:46.724Z,40.54
2018-11-23T10:58:46.690Z,41.49
2018-11-23T10:59:46.647Z,42.44
2018-11-23T11:00:46.624Z,41.40
2018-11-23T11:01:46.571Z,37.88
2018-11-23T11:02:46.524Z,35.69
2018-11-23T11:03:46.485Z,37.97
2018-11-23T11:04:46.447Z,39.69
2018-11-23T11:05:46.410Z,38.73
2018-11-23T11:06:46.363Z,38.54
2018-11-23T11:07:46.324Z,38.45
2018-11-23T11:08:46.286Z,37.97
2018-11-23T11:09:46.244Z,38.35
2018-11-23T11:10:46.207Z,38.26
2018-11-23T11:11:46.166Z,36.74
2018-11-23T11:12:46.137Z,34.55
2018-11-23T11:13:46.086Z,31.02
2018-11-23T11:14:46.046Z,33.59
2018-11-23T11:15:46.003Z,36.26
2018-11-23T11:16:45.964Z,34.74
2018-11-23T11:17:45.925Z,34.36
2018-11-23T11:18:45.885Z,36.45
2018-11-23T11:19:45.847Z,38.45
2018-11-23T11:20:45.805Z,39.87
2018-11-23T11:21:45.772Z,37.12
2018-11-23T11:22:45.725Z,35.31
2018-11-23T11:23:45.687Z,34.92
2018-11-23T11:24:45.649Z,35.97
2018-11-23T11:25:45.608Z,37.40
2018-11-23T11:26:45.564Z,37.12
2018-11-23T11:27:45.525Z,37.69
2018-11-23T11:28:45.482Z,36.93
2018-11-23T11:29:45.446Z,36.83
2018-11-23T11:30:45.405Z,35.60
2018-11-23T11:31:45.372Z,35.69
2018-11-23T11:32:45.330Z,37.19
2018-11-23T11:33:45.286Z,38.14
2018-11-23T11:34:45.243Z,38.71
2018-11-23T11:35:45.202Z,38.71
2018-11-23T11:36:45.170Z,41.09
2018-11-23T11:37:45.125Z,41.95
2018-11-23T11:38:45.085Z,42.43
2018-11-23T11:39:45.042Z,42.24
2018-11-23T11:40:45.003Z,41.66
2018-11-23T11:41:44.964Z,41.38
2018-11-23T11:42:44.930Z,41.57
2018-11-23T11:43:44.888Z,40.81
2018-11-23T11:44:44.848Z,42.24
2018-11-23T11:45:44.807Z,41.66
2018-11-23T11:46:44.767Z,41.47
2018-11-23T11:47:44.722Z,41.66
2018-11-23T11:48:44.682Z,42.24
2018-11-23T11:49:44.646Z,42.61
2018-11-23T11:50:44.606Z,42.24
2018-11-23T11:51:44.572Z,42.52
2018-11-23T11:52:44.522Z,45.00
2018-11-23T11:53:44.484Z,45.00
2018-11-23T11:54:44.446Z,44.71
2018-11-23T11:55:44.408Z,44.13
2018-11-23T11:56:44.368Z,44.90
2018-11-23T11:57:44.329Z,44.42
2018-11-23T11:58:44.286Z,45.75
2018-11-23T11:59:44.244Z,45.85
2018-11-23T12:00:44.203Z,45.56
2018-11-23T12:01:44.164Z,46.51
2018-11-23T12:02:44.126Z,46.42
2018-11-23T12:03:44.088Z,49.37
2018-11-23T12:04:44.050Z,49.27
2018-11-23T12:05:44.007Z,50.13
2018-11-23T12:06:43.963Z,49.94
2018-11-23T12:07:43.921Z,51.65
2018-11-23T12:08:43.888Z,50.15
2018-11-23T12:09:43.851Z,51.58
2018-11-23T12:10:43.804Z,51.37
2018-11-23T12:11:43.765Z,52.80
2018-11-23T12:12:43.727Z,52.22
2018-11-23T12:13:43.707Z,51.84
2018-11-23T12:14:43.645Z,53.55
2018-11-23T12:15:43.607Z,52.41
2018-11-23T12:16:43.589Z,53.65
2018-11-23T12:17:43.528Z,54.32
2018-11-23T12:18:43.483Z,53.65
2018-11-23T12:19:43.442Z,52.89
2018-11-23T12:20:43.402Z,52.89
2018-11-23T12:21:43.368Z,53.27
2018-11-23T12:22:43.326Z,53.27
2018-11-23T12:23:43.290Z,52.61
2018-11-23T12:24:43.243Z,52.89
2018-11-23T12:25:43.214Z,51.93
2018-11-23T12:26:43.165Z,50.51
2018-11-23T12:27:43.130Z,50.79
2018-11-23T12:28:43.091Z,50.51
2018-11-23T12:29:43.048Z,50.23
2018-11-23T12:30:43.004Z,50.32
2018-11-23T12:31:42.963Z,50.51
2018-11-23T12:32:42.924Z,50.79
2018-11-23T12:33:42.884Z,50.70
2018-11-23T12:34:42.845Z,50.60
2018-11-23T12:35:42.810Z,52.32
2018-11-23T12:36:42.768Z,52.80
2018-11-23T12:37:42.729Z,51.93
2018-11-23T12:38:43.170Z,52.32
2018-11-23T12:39:42.643Z,51.93
2018-11-23T12:40:42.630Z,51.58
2018-11-23T12:41:42.573Z,52.25
2018-11-23T12:42:42.524Z,52.89
2018-11-23T12:43:42.482Z,52.70
2018-11-23T12:44:42.444Z,52.82
2018-11-23T12:45:42.405Z,53.30
2018-11-23T12:46:42.366Z,53.87
2018-11-23T12:47:42.330Z,53.11
2018-11-23T12:48:42.291Z,52.53
2018-11-23T12:49:42.258Z,54.35
2018-11-23T12:50:42.208Z,54.03
2018-11-23T12:51:42.164Z,54.41
2018-11-23T12:52:42.124Z,54.82
2018-11-23T12:53:42.087Z,54.82
2018-11-23T12:54:42.048Z,55.49
2018-11-23T12:55:42.011Z,55.58
2018-11-23T12:56:41.964Z,54.72
2018-11-23T12:57:41.926Z,55.10
2018-11-23T12:58:41.892Z,54.91
2018-11-23T12:59:41.851Z,54.44
2018-11-23T13:00:41.811Z,54.69
2018-11-23T13:01:41.771Z,54.72
2018-11-23T13:02:41.728Z,53.67
2018-11-23T13:03:41.686Z,53.27
2018-11-23T13:04:41.645Z,55.93
2018-11-23T13:05:41.607Z,56.88
2018-11-23T13:06:41.570Z,57.10
2018-11-23T13:07:41.535Z,57.07
2018-11-23T13:08:41.492Z,55.77
2018-11-23T13:09:41.453Z,56.41
2018-11-23T13:10:41.410Z,58.12
2018-11-23T13:11:41.366Z,57.17
2018-11-23T13:12:41.334Z,55.83
2018-11-23T13:13:41.298Z,56.51
2018-11-23T13:14:41.252Z,57.36
2018-11-23T13:15:41.209Z,56.88
2018-11-23T13:16:41.166Z,57.74
2018-11-23T13:17:41.128Z,56.60
2018-11-23T13:18:41.090Z,54.60
2018-11-23T13:19:41.053Z,55.93
2018-11-23T13:20:41.013Z,55.27
2018-11-23T13:21:40.973Z,55.65
2018-11-23T13:22:40.928Z,55.83
2018-11-23T13:23:40.887Z,57.17
2018-11-23T13:24:40.847Z,56.12
2018-11-23T13:25:40.810Z,55.74
2018-11-23T13:26:40.772Z,56.41
2018-11-23T13:27:40.735Z,55.65
2018-11-23T13:28:40.689Z,55.65
2018-11-23T13:29:40.652Z,55.46
2018-11-23T13:30:40.617Z,55.36
2018-11-23T13:31:40.576Z,56.51
2018-11-23T13:32:40.534Z,56.41
2018-11-23T13:33:40.491Z,55.83
2018-11-23T13:34:40.449Z,56.22
2018-11-23T13:35:40.411Z,56.22
2018-11-23T13:36:40.369Z,55.46
2018-11-23T13:37:40.330Z,56.41
2018-11-23T13:38:40.296Z,56.03
2018-11-23T13:39:40.257Z,55.74